Ultramar IV — XCUI6 — position and weather

sailwx.info

Track history (hours):
 
Tides and Currents Weather Stations Pressure Air Temp Water Temp Dewpoint Dewpoint Depression Visibility Wind Speed Wind Dir Waves Ship Positions

Ultramar IV

Last reported at 2018-Jan-23 13:54 UTC. Time now 2018-Jan-23 21:43 UTC.
Position N 20°29' W 086°59'.

Length 13 m; draft 1.5 m.

Type: Passenger vessel. MMSI: 345110012.

Date/timePositionNaut miles runAvg speedWind from/ knotsBaromVisibWave heightAir tempDewpointWater temp
2018-Jan-23 13:54N 20°29' W 086°59'0 0.3
2018-Jan-23 13:07N 20°29' W 086°59'1 5.0
2018-Jan-23 12:59N 20°29' W 086°59'2 0.2
2018-Jan-23 02:54N 20°31' W 086°57'0 0.6
2018-Jan-23 02:29N 20°31' W 086°57'0 0.1
2018-Jan-23 02:00N 20°31' W 086°57'0 0.1
2018-Jan-23 01:30N 20°31' W 086°57'1 0.3
2018-Jan-22 23:40N 20°31' W 086°58'1 1.7
2018-Jan-22 23:11N 20°31' W 086°57'0 0.5
2018-Jan-22 22:38N 20°31' W 086°57'0 0.0
2018-Jan-22 22:28N 20°31' W 086°57'0 0.0
2018-Jan-22 21:58N 20°31' W 086°57'0 0.0
2018-Jan-22 21:30N 20°31' W 086°57'0 0.0
2018-Jan-22 21:00N 20°31' W 086°57'0 0.0
2018-Jan-22 20:30N 20°31' W 086°57'0 0.0
2018-Jan-22 20:00N 20°31' W 086°57'0 0.0
2018-Jan-22 19:30N 20°31' W 086°57'0 0.0
2018-Jan-22 18:55N 20°31' W 086°57'0 0.4
2018-Jan-22 18:13N 20°31' W 086°57'0 1.0
2018-Jan-22 18:00N 20°31' W 086°57'0 0.2
2018-Jan-22 17:29N 20°31' W 086°57'0 0.5
2018-Jan-22 17:00N 20°31' W 086°57'0 0.0
2018-Jan-22 16:29N 20°31' W 086°57'0 0.0
2018-Jan-22 15:59N 20°31' W 086°57'0 0.0
2018-Jan-22 13:36N 20°31' W 086°57'0 1.2
2018-Jan-22 13:25N 20°31' W 086°57'0 0.0
2018-Jan-22 04:13N 20°31' W 086°57'0 0.2
2018-Jan-22 03:59N 20°31' W 086°57'1 0.6
2018-Jan-22 02:11N 20°31' W 086°58'1 1.7
2018-Jan-22 01:41N 20°31' W 086°57'1 0.5
2018-Jan-22 00:12N 20°31' W 086°58'1 1.0
2018-Jan-21 23:24N 20°31' W 086°57'1 1.5
2018-Jan-21 23:00N 20°31' W 086°57'1 0.4
2018-Jan-21 20:14N 20°32' W 086°58'2 3.1
2018-Jan-21 19:46N 20°31' W 086°57'0 0.1
2018-Jan-21 18:13N 20°31' W 086°57'0 0.4
2018-Jan-21 17:46N 20°31' W 086°57'1 0.8
2018-Jan-21 16:14N 20°31' W 086°58'1 1.7
2018-Jan-21 15:46N 20°31' W 086°57'3 0.7
2018-Jan-21 11:43N 20°29' W 086°59'1 5.2
2018-Jan-21 11:30N 20°30' W 086°59'0 0.8
2018-Jan-21 11:00N 20°30' W 086°58'1 0.2
2018-Jan-21 04:16N 20°31' W 086°57'0 0.0
2018-Jan-21 03:46N 20°31' W 086°57'1 0.9
2018-Jan-21 02:17N 20°31' W 086°58'1 3.5
2018-Jan-21 01:56N 20°31' W 086°57'2 1.1
2018-Jan-21 00:19N 20°32' W 086°59'2 2.8
2018-Jan-20 23:47N 20°31' W 086°58'0 0.1
2018-Jan-20 20:14N 20°31' W 086°58'1 1.9
2018-Jan-20 19:48N 20°31' W 086°57'3 0.6
2018-Jan-20 15:24N 20°29' W 086°59'0 0.2
2018-Jan-20 14:56N 20°29' W 086°59'0 0.4
2018-Jan-20 13:58N 20°29' W 086°59'2 0.2
2018-Jan-20 04:08N 20°31' W 086°57'0 0.3
2018-Jan-20 03:56N 20°31' W 086°57'1 0.6
2018-Jan-20 02:09N 20°31' W 086°58'1 5.3
2018-Jan-20 01:58N 20°31' W 086°57'2 0.9
2018-Jan-20 00:13N 20°32' W 086°58'1 1.0
2018-Jan-19 23:37N 20°31' W 086°58'0 0.2
2018-Jan-19 22:12N 20°31' W 086°58'0 0.2
2018-Jan-19 21:43N 20°31' W 086°58'0 0.2
2018-Jan-19 20:13N 20°31' W 086°58'0 0.3
2018-Jan-19 19:42N 20°31' W 086°58'0 0.3
2018-Jan-19 18:14N 20°31' W 086°58'1 2.1
2018-Jan-19 17:45N 20°31' W 086°57'2 1.1
2018-Jan-19 16:19N 20°32' W 086°59'2 3.3
2018-Jan-19 15:45N 20°31' W 086°57'1 0.7
2018-Jan-19 14:13N 20°31' W 086°58'1 2.3
2018-Jan-19 13:44N 20°31' W 086°57'0 0.2
2018-Jan-19 12:10N 20°31' W 086°57'0 1.4
2018-Jan-19 11:59N 20°31' W 086°57'1 0.1
2018-Jan-19 04:37N 20°31' W 086°58'0 0.2
2018-Jan-19 03:22N 20°31' W 086°58'0 0.8
2018-Jan-19 02:55N 20°31' W 086°58'0 0.3
2018-Jan-19 01:33N 20°31' W 086°58'118.0
2018-Jan-19 01:30N 20°31' W 086°57'1 0.5
2018-Jan-18 23:41N 20°31' W 086°58'1 2.3
2018-Jan-18 23:12N 20°31' W 086°57'0 1.1
2018-Jan-18 23:00N 20°31' W 086°57'0 0.0
2018-Jan-18 22:30N 20°31' W 086°57'0 0.0
2018-Jan-18 22:00N 20°31' W 086°57'0 0.1
2018-Jan-18 21:30N 20°31' W 086°57'0 0.0
2018-Jan-18 20:59N 20°31' W 086°57'0 0.0
2018-Jan-18 20:30N 20°31' W 086°57'0 0.0
2018-Jan-18 20:00N 20°31' W 086°57'0 0.0
2018-Jan-18 19:30N 20°31' W 086°57'0 0.0
2018-Jan-18 19:00N 20°31' W 086°57'0 0.0
2018-Jan-18 18:30N 20°31' W 086°57'0 0.0
2018-Jan-18 18:00N 20°31' W 086°57'0 0.0
2018-Jan-18 17:30N 20°31' W 086°57'0 0.0
2018-Jan-18 17:00N 20°31' W 086°57'0 0.0
2018-Jan-18 16:30N 20°31' W 086°57'0 0.0
2018-Jan-18 16:00N 20°31' W 086°57'0 0.2
2018-Jan-18 15:28N 20°31' W 086°57'0 0.3
2018-Jan-18 15:00N 20°31' W 086°57'1 2.9
2018-Jan-18 14:30N 20°30' W 086°58'1 2.2
2018-Jan-18 14:00N 20°31' W 086°57'0 0.0
2018-Jan-18 13:29N 20°31' W 086°57'0 0.0
2018-Jan-18 13:00N 20°31' W 086°57'0 0.0
2018-Jan-18 12:29N 20°31' W 086°57'0 0.0
2018-Jan-18 11:56N 20°31' W 086°57'0 0.0
2018-Jan-18 11:29N 20°31' W 086°57'0 0.0
2018-Jan-18 10:59N 20°31' W 086°57'0 0.0
2018-Jan-18 10:30N 20°31' W 086°57'0 0.0
2018-Jan-18 02:13N 20°31' W 086°57'0 0.0
2018-Jan-18 01:32N 20°31' W 086°57'0 1.9
2018-Jan-18 01:26N 20°31' W 086°57'0 0.2
2018-Jan-18 00:40N 20°31' W 086°57'  
Track history (hours):
 
Tides and Currents Weather Stations Pressure Air Temp Water Temp Dewpoint Dewpoint Depression Visibility Wind Speed Wind Dir Waves Ship Positions

Ultramar IV

Last reported at 2018-Jan-23 13:54 UTC. Time now 2018-Jan-23 21:43 UTC.
Position N 20°29' W 086°59'.

Length 13 m; draft 1.5 m.

Type: Passenger vessel. MMSI: 345110012.

Date/timePositionNaut miles runAvg speedWind from/ knotsBaromVisibWave heightAir tempDewpointWater temp
2018-Jan-23 13:54N 20°29' W 086°59'0 0.3
2018-Jan-23 13:07N 20°29' W 086°59'1 5.0
2018-Jan-23 12:59N 20°29' W 086°59'2 0.2
2018-Jan-23 02:54N 20°31' W 086°57'0 0.6
2018-Jan-23 02:29N 20°31' W 086°57'0 0.1
2018-Jan-23 02:00N 20°31' W 086°57'0 0.1
2018-Jan-23 01:30N 20°31' W 086°57'1 0.3
2018-Jan-22 23:40N 20°31' W 086°58'1 1.7
2018-Jan-22 23:11N 20°31' W 086°57'0 0.5
2018-Jan-22 22:38N 20°31' W 086°57'0 0.0
2018-Jan-22 22:28N 20°31' W 086°57'0 0.0
2018-Jan-22 21:58N 20°31' W 086°57'0 0.0
2018-Jan-22 21:30N 20°31' W 086°57'0 0.0
2018-Jan-22 21:00N 20°31' W 086°57'0 0.0
2018-Jan-22 20:30N 20°31' W 086°57'0 0.0
2018-Jan-22 20:00N 20°31' W 086°57'0 0.0
2018-Jan-22 19:30N 20°31' W 086°57'0 0.0
2018-Jan-22 18:55N 20°31' W 086°57'0 0.4
2018-Jan-22 18:13N 20°31' W 086°57'0 1.0
2018-Jan-22 18:00N 20°31' W 086°57'0 0.2
2018-Jan-22 17:29N 20°31' W 086°57'0 0.5
2018-Jan-22 17:00N 20°31' W 086°57'0 0.0
2018-Jan-22 16:29N 20°31' W 086°57'0 0.0
2018-Jan-22 15:59N 20°31' W 086°57'0 0.0
2018-Jan-22 13:36N 20°31' W 086°57'0 1.2
2018-Jan-22 13:25N 20°31' W 086°57'0 0.0
2018-Jan-22 04:13N 20°31' W 086°57'0 0.2
2018-Jan-22 03:59N 20°31' W 086°57'1 0.6
2018-Jan-22 02:11N 20°31' W 086°58'1 1.7
2018-Jan-22 01:41N 20°31' W 086°57'1 0.5
2018-Jan-22 00:12N 20°31' W 086°58'1 1.0
2018-Jan-21 23:24N 20°31' W 086°57'1 1.5
2018-Jan-21 23:00N 20°31' W 086°57'1 0.4
2018-Jan-21 20:14N 20°32' W 086°58'2 3.1
2018-Jan-21 19:46N 20°31' W 086°57'0 0.1
2018-Jan-21 18:13N 20°31' W 086°57'0 0.4
2018-Jan-21 17:46N 20°31' W 086°57'1 0.8
2018-Jan-21 16:14N 20°31' W 086°58'1 1.7
2018-Jan-21 15:46N 20°31' W 086°57'3 0.7
2018-Jan-21 11:43N 20°29' W 086°59'1 5.2
2018-Jan-21 11:30N 20°30' W 086°59'0 0.8
2018-Jan-21 11:00N 20°30' W 086°58'1 0.2
2018-Jan-21 04:16N 20°31' W 086°57'0 0.0
2018-Jan-21 03:46N 20°31' W 086°57'1 0.9
2018-Jan-21 02:17N 20°31' W 086°58'1 3.5
2018-Jan-21 01:56N 20°31' W 086°57'2 1.1
2018-Jan-21 00:19N 20°32' W 086°59'2 2.8
2018-Jan-20 23:47N 20°31' W 086°58'0 0.1
2018-Jan-20 20:14N 20°31' W 086°58'1 1.9
2018-Jan-20 19:48N 20°31' W 086°57'3 0.6
2018-Jan-20 15:24N 20°29' W 086°59'0 0.2
2018-Jan-20 14:56N 20°29' W 086°59'0 0.4
2018-Jan-20 13:58N 20°29' W 086°59'2 0.2
2018-Jan-20 04:08N 20°31' W 086°57'0 0.3
2018-Jan-20 03:56N 20°31' W 086°57'1 0.6
2018-Jan-20 02:09N 20°31' W 086°58'1 5.3
2018-Jan-20 01:58N 20°31' W 086°57'2 0.9
2018-Jan-20 00:13N 20°32' W 086°58'1 1.0
2018-Jan-19 23:37N 20°31' W 086°58'0 0.2
2018-Jan-19 22:12N 20°31' W 086°58'0 0.2
2018-Jan-19 21:43N 20°31' W 086°58'0 0.2
2018-Jan-19 20:13N 20°31' W 086°58'0 0.3
2018-Jan-19 19:42N 20°31' W 086°58'0 0.3
2018-Jan-19 18:14N 20°31' W 086°58'1 2.1
2018-Jan-19 17:45N 20°31' W 086°57'2 1.1
2018-Jan-19 16:19N 20°32' W 086°59'2 3.3
2018-Jan-19 15:45N 20°31' W 086°57'1 0.7
2018-Jan-19 14:13N 20°31' W 086°58'1 2.3
2018-Jan-19 13:44N 20°31' W 086°57'0 0.2
2018-Jan-19 12:10N 20°31' W 086°57'0 1.4
2018-Jan-19 11:59N 20°31' W 086°57'1 0.1
2018-Jan-19 04:37N 20°31' W 086°58'0 0.2
2018-Jan-19 03:22N 20°31' W 086°58'0 0.8
2018-Jan-19 02:55N 20°31' W 086°58'0 0.3
2018-Jan-19 01:33N 20°31' W 086°58'118.0
2018-Jan-19 01:30N 20°31' W 086°57'1 0.5
2018-Jan-18 23:41N 20°31' W 086°58'1 2.3
2018-Jan-18 23:12N 20°31' W 086°57'0 1.1
2018-Jan-18 23:00N 20°31' W 086°57'0 0.0
2018-Jan-18 22:30N 20°31' W 086°57'0 0.0
2018-Jan-18 22:00N 20°31' W 086°57'0 0.1
2018-Jan-18 21:30N 20°31' W 086°57'0 0.0
2018-Jan-18 20:59N 20°31' W 086°57'0 0.0
2018-Jan-18 20:30N 20°31' W 086°57'0 0.0
2018-Jan-18 20:00N 20°31' W 086°57'0 0.0
2018-Jan-18 19:30N 20°31' W 086°57'0 0.0
2018-Jan-18 19:00N 20°31' W 086°57'0 0.0
2018-Jan-18 18:30N 20°31' W 086°57'0 0.0
2018-Jan-18 18:00N 20°31' W 086°57'0 0.0
2018-Jan-18 17:30N 20°31' W 086°57'0 0.0
2018-Jan-18 17:00N 20°31' W 086°57'0 0.0
2018-Jan-18 16:30N 20°31' W 086°57'0 0.0
2018-Jan-18 16:00N 20°31' W 086°57'0 0.2
2018-Jan-18 15:28N 20°31' W 086°57'0 0.3
2018-Jan-18 15:00N 20°31' W 086°57'1 2.9
2018-Jan-18 14:30N 20°30' W 086°58'1 2.2
2018-Jan-18 14:00N 20°31' W 086°57'0 0.0
2018-Jan-18 13:29N 20°31' W 086°57'0 0.0
2018-Jan-18 13:00N 20°31' W 086°57'0 0.0
2018-Jan-18 12:29N 20°31' W 086°57'0 0.0
2018-Jan-18 11:56N 20°31' W 086°57'0 0.0
2018-Jan-18 11:29N 20°31' W 086°57'0 0.0
2018-Jan-18 10:59N 20°31' W 086°57'0 0.0
2018-Jan-18 10:30N 20°31' W 086°57'0 0.0
2018-Jan-18 02:13N 20°31' W 086°57'0 0.0
2018-Jan-18 01:32N 20°31' W 086°57'0 1.9
2018-Jan-18 01:26N 20°31' W 086°57'0 0.2
2018-Jan-18 00:40N 20°31' W 086°57'  

Dump ship's entire track history